Terminal Aerodrome Forecast
Issued by NWS

Home | Current Version | Previous Version | Text Only | Print | Product List | Glossary On
Versions: 1 2 3 4 5 6 7 8 9 10 11 12 13 14 15
000
FTUS45 KTFX 050156 AAA
TAFBZN
TAF AMD
KBZN 050156Z 0502/0524 23008KT P6SM VCSH SCT040 BKN090
      TEMPO 0502/0505 -RA BKN040
     FM050500 34005KT P6SM -RA SCT030 BKN050
     FM051800 21008KT P6SM -RA BKN040=

USA.gov is the U.S. government's official web portal to all federal, state and local government web resources and services.